sensor_id;sensor_type;location;lat;lon;timestamp;P1;durP1;ratioP1;P2;durP2;ratioP2
22737;SDS011;11536;50.860;4.286;2022-09-09T00:01:46;2.67;;;0.90;;
22737;SDS011;11536;50.860;4.286;2022-09-09T00:04:18;3.67;;;0.82;;
22737;SDS011;11536;50.860;4.286;2022-09-09T00:09:59;3.22;;;1.00;;
22737;SDS011;11536;50.860;4.286;2022-09-09T00:12:57;5.13;;;0.90;;
22737;SDS011;11536;50.860;4.286;2022-09-09T00:15:26;3.53;;;0.80;;
22737;SDS011;11536;50.860;4.286;2022-09-09T00:18:20;4.28;;;1.02;;
22737;SDS011;11536;50.860;4.286;2022-09-09T00:23:42;6.45;;;1.00;;
22737;SDS011;11536;50.860;4.286;2022-09-09T00:28:50;3.63;;;0.90;;
22737;SDS011;11536;50.860;4.286;2022-09-09T00:31:23;6.78;;;0.73;;
22737;SDS011;11536;50.860;4.286;2022-09-09T00:33:52;5.05;;;1.05;;
22737;SDS011;11536;50.860;4.286;2022-09-09T00:36:21;3.30;;;0.88;;
22737;SDS011;11536;50.860;4.286;2022-09-09T00:38:55;5.18;;;0.98;;
22737;SDS011;11536;50.860;4.286;2022-09-09T00:41:25;5.00;;;0.90;;
22737;SDS011;11536;50.860;4.286;2022-09-09T00:44:13;7.13;;;1.02;;
22737;SDS011;11536;50.860;4.286;2022-09-09T00:47:09;4.30;;;1.00;;
22737;SDS011;11536;50.860;4.286;2022-09-09T00:52:34;5.35;;;1.00;;
22737;SDS011;11536;50.860;4.286;2022-09-09T00:58:08;4.00;;;0.75;;
22737;SDS011;11536;50.860;4.286;2022-09-09T01:00:50;3.17;;;0.80;;
22737;SDS011;11536;50.860;4.286;2022-09-09T01:14:33;5.97;;;0.80;;
22737;SDS011;11536;50.860;4.286;2022-09-09T01:19:45;5.90;;;0.98;;
22737;SDS011;11536;50.860;4.286;2022-09-09T01:25:22;6.47;;;0.90;;
22737;SDS011;11536;50.860;4.286;2022-09-09T01:28:16;4.65;;;0.90;;
22737;SDS011;11536;50.860;4.286;2022-09-09T01:30:46;6.38;;;0.93;;
22737;SDS011;11536;50.860;4.286;2022-09-09T01:33:13;3.42;;;0.77;;
22737;SDS011;11536;50.860;4.286;2022-09-09T01:38:15;4.50;;;0.82;;
22737;SDS011;11536;50.860;4.286;2022-09-09T01:40:42;5.28;;;1.10;;
22737;SDS011;11536;50.860;4.286;2022-09-09T01:43:08;6.28;;;0.98;;
22737;SDS011;11536;50.860;4.286;2022-09-09T01:45:34;4.72;;;0.82;;
22737;SDS011;11536;50.860;4.286;2022-09-09T01:48:00;5.93;;;1.08;;
22737;SDS011;11536;50.860;4.286;2022-09-09T01:50:27;5.35;;;0.80;;
22737;SDS011;11536;50.860;4.286;2022-09-09T01:52:54;3.78;;;0.90;;
22737;SDS011;11536;50.860;4.286;2022-09-09T01:55:30;5.03;;;0.77;;
22737;SDS011;11536;50.860;4.286;2022-09-09T01:58:06;5.65;;;0.90;;
22737;SDS011;11536;50.860;4.286;2022-09-09T02:00:35;6.10;;;1.10;;
22737;SDS011;11536;50.860;4.286;2022-09-09T02:03:25;6.35;;;1.08;;
22737;SDS011;11536;50.860;4.286;2022-09-09T02:08:41;3.38;;;0.82;;
22737;SDS011;11536;50.860;4.286;2022-09-09T02:11:14;10.20;;;1.33;;
22737;SDS011;11536;50.860;4.286;2022-09-09T02:13:41;5.30;;;0.90;;
22737;SDS011;11536;50.860;4.286;2022-09-09T02:18:48;6.35;;;1.13;;
22737;SDS011;11536;50.860;4.286;2022-09-09T02:21:28;5.78;;;1.23;;
22737;SDS011;11536;50.860;4.286;2022-09-09T02:23:55;7.90;;;1.33;;
22737;SDS011;11536;50.860;4.286;2022-09-09T02:26:23;6.32;;;1.20;;
22737;SDS011;11536;50.860;4.286;2022-09-09T02:28:50;8.95;;;1.33;;
22737;SDS011;11536;50.860;4.286;2022-09-09T02:31:19;8.30;;;1.50;;
22737;SDS011;11536;50.860;4.286;2022-09-09T02:33:57;7.28;;;1.10;;
22737;SDS011;11536;50.860;4.286;2022-09-09T02:36:26;6.75;;;1.30;;
22737;SDS011;11536;50.860;4.286;2022-09-09T02:38:58;9.68;;;1.63;;
22737;SDS011;11536;50.860;4.286;2022-09-09T02:41:26;6.20;;;1.17;;
22737;SDS011;11536;50.860;4.286;2022-09-09T02:43:56;6.68;;;1.30;;
22737;SDS011;11536;50.860;4.286;2022-09-09T02:49:09;7.00;;;1.17;;
22737;SDS011;11536;50.860;4.286;2022-09-09T02:52:02;6.55;;;1.20;;
22737;SDS011;11536;50.860;4.286;2022-09-09T02:54:31;7.32;;;1.38;;
22737;SDS011;11536;50.860;4.286;2022-09-09T02:59:41;11.15;;;1.42;;
22737;SDS011;11536;50.860;4.286;2022-09-09T03:02:08;6.95;;;1.58;;
22737;SDS011;11536;50.860;4.286;2022-09-09T03:04:36;10.27;;;1.60;;
22737;SDS011;11536;50.860;4.286;2022-09-09T03:07:03;7.72;;;1.45;;
22737;SDS011;11536;50.860;4.286;2022-09-09T03:09:29;10.45;;;1.73;;
22737;SDS011;11536;50.860;4.286;2022-09-09T03:11:55;9.48;;;1.70;;
22737;SDS011;11536;50.860;4.286;2022-09-09T03:14:21;6.10;;;1.30;;
22737;SDS011;11536;50.860;4.286;2022-09-09T03:16:50;7.55;;;1.30;;
22737;SDS011;11536;50.860;4.286;2022-09-09T03:19:16;9.52;;;1.30;;
22737;SDS011;11536;50.860;4.286;2022-09-09T03:21:43;8.23;;;1.10;;
22737;SDS011;11536;50.860;4.286;2022-09-09T03:24:09;8.77;;;1.33;;
22737;SDS011;11536;50.860;4.286;2022-09-09T03:26:35;6.63;;;1.42;;
22737;SDS011;11536;50.860;4.286;2022-09-09T03:29:02;9.23;;;1.40;;
22737;SDS011;11536;50.860;4.286;2022-09-09T03:31:31;12.85;;;1.50;;
22737;SDS011;11536;50.860;4.286;2022-09-09T03:33:57;7.57;;;1.55;;
22737;SDS011;11536;50.860;4.286;2022-09-09T03:36:26;8.45;;;1.65;;
22737;SDS011;11536;50.860;4.286;2022-09-09T03:38:52;7.40;;;1.50;;
22737;SDS011;11536;50.860;4.286;2022-09-09T03:41:19;11.52;;;1.50;;
22737;SDS011;11536;50.860;4.286;2022-09-09T03:43:45;8.30;;;1.85;;
22737;SDS011;11536;50.860;4.286;2022-09-09T03:46:11;9.88;;;1.45;;
22737;SDS011;11536;50.860;4.286;2022-09-09T03:48:37;5.75;;;1.30;;
22737;SDS011;11536;50.860;4.286;2022-09-09T03:51:03;8.25;;;1.20;;
22737;SDS011;11536;50.860;4.286;2022-09-09T03:53:28;6.90;;;1.30;;
22737;SDS011;11536;50.860;4.286;2022-09-09T03:55:54;8.88;;;1.75;;
22737;SDS011;11536;50.860;4.286;2022-09-09T03:58:24;13.57;;;2.17;;
22737;SDS011;11536;50.860;4.286;2022-09-09T04:03:21;7.60;;;1.45;;
22737;SDS011;11536;50.860;4.286;2022-09-09T04:05:49;9.90;;;1.58;;
22737;SDS011;11536;50.860;4.286;2022-09-09T04:08:16;6.00;;;1.52;;
22737;SDS011;11536;50.860;4.286;2022-09-09T04:10:44;9.90;;;1.50;;
22737;SDS011;11536;50.860;4.286;2022-09-09T04:13:11;8.32;;;1.80;;
22737;SDS011;11536;50.860;4.286;2022-09-09T04:15:41;8.45;;;1.55;;
22737;SDS011;11536;50.860;4.286;2022-09-09T04:18:07;9.07;;;1.60;;
22737;SDS011;11536;50.860;4.286;2022-09-09T04:20:33;10.50;;;1.70;;
22737;SDS011;11536;50.860;4.286;2022-09-09T04:22:59;10.30;;;1.75;;
22737;SDS011;11536;50.860;4.286;2022-09-09T04:25:25;10.15;;;1.77;;
22737;SDS011;11536;50.860;4.286;2022-09-09T04:27:54;7.53;;;1.30;;
22737;SDS011;11536;50.860;4.286;2022-09-09T04:30:21;10.48;;;1.63;;
22737;SDS011;11536;50.860;4.286;2022-09-09T04:32:47;9.02;;;1.50;;
22737;SDS011;11536;50.860;4.286;2022-09-09T04:35:12;8.88;;;1.50;;
22737;SDS011;11536;50.860;4.286;2022-09-09T04:37:38;9.63;;;1.65;;
22737;SDS011;11536;50.860;4.286;2022-09-09T04:40:04;12.75;;;1.90;;
22737;SDS011;11536;50.860;4.286;2022-09-09T04:42:30;10.73;;;1.60;;
22737;SDS011;11536;50.860;4.286;2022-09-09T04:45:03;9.93;;;1.80;;
22737;SDS011;11536;50.860;4.286;2022-09-09T04:47:31;9.55;;;1.70;;
22737;SDS011;11536;50.860;4.286;2022-09-09T04:49:56;8.15;;;1.98;;
22737;SDS011;11536;50.860;4.286;2022-09-09T04:52:22;9.02;;;1.80;;
22737;SDS011;11536;50.860;4.286;2022-09-09T04:54:48;6.28;;;1.60;;
22737;SDS011;11536;50.860;4.286;2022-09-09T04:57:13;11.20;;;2.58;;
22737;SDS011;11536;50.860;4.286;2022-09-09T04:59:39;9.40;;;1.75;;
22737;SDS011;11536;50.860;4.286;2022-09-09T05:02:05;13.38;;;2.97;;
22737;SDS011;11536;50.860;4.286;2022-09-09T05:04:31;9.43;;;1.60;;
22737;SDS011;11536;50.860;4.286;2022-09-09T05:06:58;10.18;;;1.70;;
22737;SDS011;11536;50.860;4.286;2022-09-09T05:09:24;8.70;;;1.77;;
22737;SDS011;11536;50.860;4.286;2022-09-09T05:11:50;8.80;;;1.80;;
22737;SDS011;11536;50.860;4.286;2022-09-09T05:14:16;11.07;;;2.00;;
22737;SDS011;11536;50.860;4.286;2022-09-09T05:16:43;13.10;;;2.50;;
22737;SDS011;11536;50.860;4.286;2022-09-09T05:19:10;8.93;;;1.77;;
22737;SDS011;11536;50.860;4.286;2022-09-09T05:21:35;11.15;;;1.90;;
22737;SDS011;11536;50.860;4.286;2022-09-09T05:24:02;10.20;;;1.98;;
22737;SDS011;11536;50.860;4.286;2022-09-09T05:26:27;15.93;;;1.75;;
22737;SDS011;11536;50.860;4.286;2022-09-09T05:28:54;10.23;;;1.73;;
22737;SDS011;11536;50.860;4.286;2022-09-09T05:31:31;10.57;;;1.85;;
22737;SDS011;11536;50.860;4.286;2022-09-09T05:33:57;9.05;;;2.45;;
22737;SDS011;11536;50.860;4.286;2022-09-09T05:36:24;11.40;;;1.92;;
22737;SDS011;11536;50.860;4.286;2022-09-09T05:38:49;10.95;;;1.90;;
22737;SDS011;11536;50.860;4.286;2022-09-09T05:41:16;10.98;;;1.90;;
22737;SDS011;11536;50.860;4.286;2022-09-09T05:43:42;9.90;;;2.00;;
22737;SDS011;11536;50.860;4.286;2022-09-09T05:46:14;11.15;;;2.10;;
22737;SDS011;11536;50.860;4.286;2022-09-09T05:48:48;12.07;;;2.00;;
22737;SDS011;11536;50.860;4.286;2022-09-09T05:51:19;10.63;;;2.00;;
22737;SDS011;11536;50.860;4.286;2022-09-09T05:53:49;10.32;;;1.95;;
22737;SDS011;11536;50.860;4.286;2022-09-09T05:56:20;10.68;;;2.10;;
22737;SDS011;11536;50.860;4.286;2022-09-09T05:58:49;12.27;;;1.90;;
22737;SDS011;11536;50.860;4.286;2022-09-09T06:03:42;9.18;;;1.98;;
22737;SDS011;11536;50.860;4.286;2022-09-09T06:06:10;12.93;;;2.00;;
22737;SDS011;11536;50.860;4.286;2022-09-09T06:08:39;13.43;;;2.15;;
22737;SDS011;11536;50.860;4.286;2022-09-09T06:11:07;11.05;;;1.65;;
22737;SDS011;11536;50.860;4.286;2022-09-09T06:13:34;12.80;;;3.05;;
22737;SDS011;11536;50.860;4.286;2022-09-09T06:16:02;13.95;;;2.15;;
22737;SDS011;11536;50.860;4.286;2022-09-09T06:18:29;7.57;;;1.98;;
22737;SDS011;11536;50.860;4.286;2022-09-09T06:20:58;11.32;;;2.03;;
22737;SDS011;11536;50.860;4.286;2022-09-09T06:23:33;12.63;;;1.90;;
22737;SDS011;11536;50.860;4.286;2022-09-09T06:26:07;9.93;;;1.52;;
22737;SDS011;11536;50.860;4.286;2022-09-09T06:28:35;14.35;;;2.00;;
22737;SDS011;11536;50.860;4.286;2022-09-09T06:31:02;8.85;;;1.63;;
22737;SDS011;11536;50.860;4.286;2022-09-09T06:33:33;10.00;;;1.70;;
22737;SDS011;11536;50.860;4.286;2022-09-09T06:36:01;10.55;;;1.88;;
22737;SDS011;11536;50.860;4.286;2022-09-09T06:38:28;10.75;;;1.83;;
22737;SDS011;11536;50.860;4.286;2022-09-09T06:40:54;10.27;;;2.38;;
22737;SDS011;11536;50.860;4.286;2022-09-09T06:43:21;10.02;;;2.10;;
22737;SDS011;11536;50.860;4.286;2022-09-09T06:45:55;12.68;;;1.90;;
22737;SDS011;11536;50.860;4.286;2022-09-09T06:48:24;9.18;;;1.55;;
22737;SDS011;11536;50.860;4.286;2022-09-09T06:50:51;13.18;;;1.92;;
22737;SDS011;11536;50.860;4.286;2022-09-09T06:53:25;6.60;;;1.50;;
22737;SDS011;11536;50.860;4.286;2022-09-09T06:55:52;7.80;;;1.42;;
22737;SDS011;11536;50.860;4.286;2022-09-09T06:58:17;9.93;;;1.88;;
22737;SDS011;11536;50.860;4.286;2022-09-09T07:00:43;9.30;;;1.70;;
22737;SDS011;11536;50.860;4.286;2022-09-09T07:03:09;9.27;;;1.77;;
22737;SDS011;11536;50.860;4.286;2022-09-09T07:05:35;11.20;;;2.15;;
22737;SDS011;11536;50.860;4.286;2022-09-09T07:08:02;6.05;;;1.42;;
22737;SDS011;11536;50.860;4.286;2022-09-09T07:10:27;10.30;;;1.60;;
22737;SDS011;11536;50.860;4.286;2022-09-09T07:12:53;8.35;;;1.92;;
22737;SDS011;11536;50.860;4.286;2022-09-09T07:15:19;10.10;;;1.75;;
22737;SDS011;11536;50.860;4.286;2022-09-09T07:17:46;6.45;;;1.75;;
22737;SDS011;11536;50.860;4.286;2022-09-09T07:20:12;10.32;;;1.70;;
22737;SDS011;11536;50.860;4.286;2022-09-09T07:22:39;9.35;;;1.92;;
22737;SDS011;11536;50.860;4.286;2022-09-09T07:25:05;9.43;;;1.60;;
22737;SDS011;11536;50.860;4.286;2022-09-09T07:27:31;7.38;;;1.70;;
22737;SDS011;11536;50.860;4.286;2022-09-09T07:29:57;8.55;;;1.75;;
22737;SDS011;11536;50.860;4.286;2022-09-09T07:32:23;12.80;;;2.08;;
22737;SDS011;11536;50.860;4.286;2022-09-09T07:34:50;10.68;;;1.73;;
22737;SDS011;11536;50.860;4.286;2022-09-09T07:37:16;8.98;;;1.85;;
22737;SDS011;11536;50.860;4.286;2022-09-09T07:39:42;11.82;;;1.83;;
22737;SDS011;11536;50.860;4.286;2022-09-09T07:42:08;8.50;;;1.50;;
22737;SDS011;11536;50.860;4.286;2022-09-09T07:44:36;12.23;;;1.95;;
22737;SDS011;11536;50.860;4.286;2022-09-09T07:47:04;7.65;;;1.60;;
22737;SDS011;11536;50.860;4.286;2022-09-09T07:49:29;8.98;;;1.45;;
22737;SDS011;11536;50.860;4.286;2022-09-09T07:51:55;10.35;;;1.58;;
22737;SDS011;11536;50.860;4.286;2022-09-09T07:54:21;8.73;;;1.63;;
22737;SDS011;11536;50.860;4.286;2022-09-09T07:56:48;10.05;;;1.90;;
22737;SDS011;11536;50.860;4.286;2022-09-09T07:59:15;9.93;;;1.70;;
22737;SDS011;11536;50.860;4.286;2022-09-09T08:01:49;8.75;;;1.75;;
22737;SDS011;11536;50.860;4.286;2022-09-09T08:04:17;10.88;;;1.95;;
22737;SDS011;11536;50.860;4.286;2022-09-09T08:06:46;6.78;;;1.50;;
22737;SDS011;11536;50.860;4.286;2022-09-09T08:09:13;10.93;;;1.80;;
22737;SDS011;11536;50.860;4.286;2022-09-09T08:11:40;10.77;;;1.90;;
22737;SDS011;11536;50.860;4.286;2022-09-09T08:14:07;8.32;;;1.58;;
22737;SDS011;11536;50.860;4.286;2022-09-09T08:16:34;4.60;;;1.27;;
22737;SDS011;11536;50.860;4.286;2022-09-09T08:19:02;6.72;;;1.60;;
22737;SDS011;11536;50.860;4.286;2022-09-09T08:21:29;12.65;;;1.90;;
22737;SDS011;11536;50.860;4.286;2022-09-09T08:23:56;6.85;;;1.25;;
22737;SDS011;11536;50.860;4.286;2022-09-09T08:26:24;12.05;;;1.85;;
22737;SDS011;11536;50.860;4.286;2022-09-09T08:28:59;10.93;;;2.03;;
22737;SDS011;11536;50.860;4.286;2022-09-09T08:31:30;8.27;;;1.70;;
22737;SDS011;11536;50.860;4.286;2022-09-09T08:33:58;6.45;;;1.52;;
22737;SDS011;11536;50.860;4.286;2022-09-09T08:36:26;10.85;;;1.80;;
22737;SDS011;11536;50.860;4.286;2022-09-09T08:38:54;7.28;;;1.60;;
22737;SDS011;11536;50.860;4.286;2022-09-09T08:41:29;8.70;;;1.92;;
22737;SDS011;11536;50.860;4.286;2022-09-09T08:52:51;12.60;;;2.30;;
22737;SDS011;11536;50.860;4.286;2022-09-09T08:55:37;9.18;;;2.40;;
22737;SDS011;11536;50.860;4.286;2022-09-09T08:58:27;7.35;;;1.70;;
22737;SDS011;11536;50.860;4.286;2022-09-09T09:01:01;11.32;;;2.25;;
22737;SDS011;11536;50.860;4.286;2022-09-09T09:09:36;9.55;;;2.30;;
22737;SDS011;11536;50.860;4.286;2022-09-09T09:12:10;10.55;;;1.90;;
22737;SDS011;11536;50.860;4.286;2022-09-09T09:14:41;12.27;;;1.92;;
22737;SDS011;11536;50.860;4.286;2022-09-09T09:17:11;9.68;;;1.98;;
22737;SDS011;11536;50.860;4.286;2022-09-09T09:19:40;12.48;;;2.08;;
22737;SDS011;11536;50.860;4.286;2022-09-09T09:27:30;8.73;;;1.67;;
22737;SDS011;11536;50.860;4.286;2022-09-09T09:29:59;8.02;;;1.70;;
22737;SDS011;11536;50.860;4.286;2022-09-09T09:32:25;10.98;;;1.80;;
22737;SDS011;11536;50.860;4.286;2022-09-09T09:34:58;9.05;;;1.90;;
22737;SDS011;11536;50.860;4.286;2022-09-09T09:37:29;9.77;;;1.90;;
22737;SDS011;11536;50.860;4.286;2022-09-09T09:40:07;8.80;;;1.80;;
22737;SDS011;11536;50.860;4.286;2022-09-09T09:42:37;10.00;;;1.73;;
22737;SDS011;11536;50.860;4.286;2022-09-09T09:45:16;12.18;;;2.10;;
22737;SDS011;11536;50.860;4.286;2022-09-09T09:47:58;12.30;;;1.85;;
22737;SDS011;11536;50.860;4.286;2022-09-09T09:50:28;11.00;;;1.90;;
22737;SDS011;11536;50.860;4.286;2022-09-09T09:52:57;8.65;;;1.80;;
22737;SDS011;11536;50.860;4.286;2022-09-09T09:55:47;11.40;;;1.83;;
22737;SDS011;11536;50.860;4.286;2022-09-09T09:58:19;7.43;;;1.80;;
22737;SDS011;11536;50.860;4.286;2022-09-09T10:00:49;10.60;;;1.90;;
22737;SDS011;11536;50.860;4.286;2022-09-09T10:03:29;6.72;;;1.90;;
22737;SDS011;11536;50.860;4.286;2022-09-09T10:05:56;7.70;;;1.80;;
22737;SDS011;11536;50.860;4.286;2022-09-09T10:08:23;8.38;;;1.70;;
22737;SDS011;11536;50.860;4.286;2022-09-09T10:13:58;7.53;;;1.67;;
22737;SDS011;11536;50.860;4.286;2022-09-09T10:19:36;6.78;;;1.35;;
22737;SDS011;11536;50.860;4.286;2022-09-09T10:30:11;8.18;;;1.30;;
22737;SDS011;11536;50.860;4.286;2022-09-09T10:33:09;10.10;;;1.65;;
22737;SDS011;11536;50.860;4.286;2022-09-09T10:35:41;10.10;;;1.60;;
22737;SDS011;11536;50.860;4.286;2022-09-09T10:38:17;12.55;;;1.60;;
22737;SDS011;11536;50.860;4.286;2022-09-09T10:41:50;10.75;;;1.50;;
22737;SDS011;11536;50.860;4.286;2022-09-09T10:46:46;9.68;;;2.20;;
22737;SDS011;11536;50.860;4.286;2022-09-09T10:52:14;10.55;;;2.00;;
22737;SDS011;11536;50.860;4.286;2022-09-09T11:00:21;10.98;;;1.65;;
22737;SDS011;11536;50.860;4.286;2022-09-09T11:03:03;6.57;;;1.20;;
22737;SDS011;11536;50.860;4.286;2022-09-09T11:05:31;9.45;;;1.50;;
22737;SDS011;11536;50.860;4.286;2022-09-09T11:08:25;5.57;;;1.13;;
22737;SDS011;11536;50.860;4.286;2022-09-09T11:10:57;9.60;;;1.42;;
22737;SDS011;11536;50.860;4.286;2022-09-09T11:13:46;5.28;;;1.23;;
22737;SDS011;11536;50.860;4.286;2022-09-09T11:19:01;7.07;;;1.33;;
22737;SDS011;11536;50.860;4.286;2022-09-09T11:24:47;8.73;;;1.52;;
22737;SDS011;11536;50.860;4.286;2022-09-09T11:30:21;7.05;;;1.42;;
22737;SDS011;11536;50.860;4.286;2022-09-09T11:38:26;5.90;;;1.48;;
22737;SDS011;11536;50.860;4.286;2022-09-09T11:41:00;6.72;;;1.20;;
22737;SDS011;11536;50.860;4.286;2022-09-09T11:43:41;8.38;;;1.33;;
22737;SDS011;11536;50.860;4.286;2022-09-09T11:46:20;7.47;;;1.25;;
22737;SDS011;11536;50.860;4.286;2022-09-09T11:49:03;5.95;;;1.30;;
22737;SDS011;11536;50.860;4.286;2022-09-09T11:51:31;5.68;;;1.10;;
22737;SDS011;11536;50.860;4.286;2022-09-09T11:53:59;5.85;;;1.25;;
22737;SDS011;11536;50.860;4.286;2022-09-09T11:56:44;6.07;;;1.30;;
22737;SDS011;11536;50.860;4.286;2022-09-09T11:59:19;8.43;;;1.25;;
22737;SDS011;11536;50.860;4.286;2022-09-09T12:01:48;5.82;;;1.08;;
22737;SDS011;11536;50.860;4.286;2022-09-09T12:06:52;9.75;;;1.30;;
22737;SDS011;11536;50.860;4.286;2022-09-09T12:09:23;8.23;;;1.30;;
22737;SDS011;11536;50.860;4.286;2022-09-09T12:17:19;8.18;;;1.20;;
22737;SDS011;11536;50.860;4.286;2022-09-09T12:19:47;5.50;;;1.20;;
22737;SDS011;11536;50.860;4.286;2022-09-09T12:22:32;5.72;;;1.38;;
22737;SDS011;11536;50.860;4.286;2022-09-09T12:27:35;6.57;;;1.30;;
22737;SDS011;11536;50.860;4.286;2022-09-09T12:30:09;10.38;;;1.98;;
22737;SDS011;11536;50.860;4.286;2022-09-09T12:32:39;5.63;;;1.30;;
22737;SDS011;11536;50.860;4.286;2022-09-09T12:35:11;6.13;;;1.27;;
22737;SDS011;11536;50.860;4.286;2022-09-09T12:37:46;5.90;;;1.40;;
22737;SDS011;11536;50.860;4.286;2022-09-09T12:40:20;7.10;;;1.40;;
22737;SDS011;11536;50.860;4.286;2022-09-09T12:42:47;6.25;;;1.20;;
22737;SDS011;11536;50.860;4.286;2022-09-09T12:45:19;5.93;;;1.08;;
22737;SDS011;11536;50.860;4.286;2022-09-09T12:48:00;9.60;;;1.58;;
22737;SDS011;11536;50.860;4.286;2022-09-09T12:50:34;4.10;;;0.90;;
22737;SDS011;11536;50.860;4.286;2022-09-09T12:53:11;6.00;;;1.40;;
22737;SDS011;11536;50.860;4.286;2022-09-09T12:55:50;2.70;;;0.93;;
22737;SDS011;11536;50.860;4.286;2022-09-09T12:58:17;8.98;;;1.00;;
22737;SDS011;11536;50.860;4.286;2022-09-09T13:00:48;6.20;;;1.02;;
22737;SDS011;11536;50.860;4.286;2022-09-09T13:03:17;6.25;;;1.10;;
22737;SDS011;11536;50.860;4.286;2022-09-09T13:05:45;5.07;;;0.98;;
22737;SDS011;11536;50.860;4.286;2022-09-09T13:08:12;9.18;;;1.20;;
22737;SDS011;11536;50.860;4.286;2022-09-09T13:11:12;5.50;;;1.17;;
22737;SDS011;11536;50.860;4.286;2022-09-09T13:13:40;7.50;;;1.17;;
22737;SDS011;11536;50.860;4.286;2022-09-09T13:16:17;5.35;;;1.00;;
22737;SDS011;11536;50.860;4.286;2022-09-09T13:18:57;5.65;;;1.48;;
22737;SDS011;11536;50.860;4.286;2022-09-09T13:21:35;5.63;;;1.10;;
22737;SDS011;11536;50.860;4.286;2022-09-09T13:24:04;9.05;;;1.20;;
22737;SDS011;11536;50.860;4.286;2022-09-09T13:26:32;6.10;;;1.17;;
22737;SDS011;11536;50.860;4.286;2022-09-09T13:29:14;5.15;;;1.17;;
22737;SDS011;11536;50.860;4.286;2022-09-09T13:31:43;6.15;;;1.17;;
22737;SDS011;11536;50.860;4.286;2022-09-09T13:34:13;4.20;;;0.93;;
22737;SDS011;11536;50.860;4.286;2022-09-09T13:37:01;5.20;;;1.15;;
22737;SDS011;11536;50.860;4.286;2022-09-09T13:39:31;5.55;;;1.10;;
22737;SDS011;11536;50.860;4.286;2022-09-09T13:42:02;4.45;;;0.82;;
22737;SDS011;11536;50.860;4.286;2022-09-09T13:44:29;5.03;;;0.82;;
22737;SDS011;11536;50.860;4.286;2022-09-09T13:47:00;4.75;;;1.00;;
22737;SDS011;11536;50.860;4.286;2022-09-09T13:49:26;4.20;;;1.02;;
22737;SDS011;11536;50.860;4.286;2022-09-09T13:52:03;4.20;;;0.82;;
22737;SDS011;11536;50.860;4.286;2022-09-09T13:54:32;4.65;;;0.80;;
22737;SDS011;11536;50.860;4.286;2022-09-09T13:56:58;3.85;;;0.80;;
22737;SDS011;11536;50.860;4.286;2022-09-09T13:59:24;4.05;;;1.05;;
22737;SDS011;11536;50.860;4.286;2022-09-09T14:01:50;7.15;;;1.08;;
22737;SDS011;11536;50.860;4.286;2022-09-09T14:04:17;2.45;;;0.80;;
22737;SDS011;11536;50.860;4.286;2022-09-09T14:06:45;7.47;;;1.17;;
22737;SDS011;11536;50.860;4.286;2022-09-09T14:09:13;5.47;;;1.13;;
22737;SDS011;11536;50.860;4.286;2022-09-09T14:11:40;4.80;;;0.95;;
22737;SDS011;11536;50.860;4.286;2022-09-09T14:14:06;4.32;;;0.90;;
22737;SDS011;11536;50.860;4.286;2022-09-09T14:16:32;8.07;;;1.30;;
22737;SDS011;11536;50.860;4.286;2022-09-09T14:18:58;4.88;;;1.25;;
22737;SDS011;11536;50.860;4.286;2022-09-09T14:21:24;8.02;;;1.20;;
22737;SDS011;11536;50.860;4.286;2022-09-09T14:23:51;3.33;;;1.30;;
22737;SDS011;11536;50.860;4.286;2022-09-09T14:26:23;6.15;;;1.48;;
22737;SDS011;11536;50.860;4.286;2022-09-09T14:28:49;4.35;;;1.38;;
22737;SDS011;11536;50.860;4.286;2022-09-09T14:31:16;4.13;;;1.30;;
22737;SDS011;11536;50.860;4.286;2022-09-09T14:33:42;7.03;;;1.63;;
22737;SDS011;11536;50.860;4.286;2022-09-09T14:36:09;6.13;;;1.55;;
22737;SDS011;11536;50.860;4.286;2022-09-09T14:38:36;5.55;;;1.10;;
22737;SDS011;11536;50.860;4.286;2022-09-09T14:41:07;5.05;;;1.00;;
22737;SDS011;11536;50.860;4.286;2022-09-09T14:43:34;4.25;;;1.05;;
22737;SDS011;11536;50.860;4.286;2022-09-09T14:46:06;7.03;;;1.30;;
22737;SDS011;11536;50.860;4.286;2022-09-09T14:48:34;6.70;;;1.17;;
22737;SDS011;11536;50.860;4.286;2022-09-09T14:53:32;5.50;;;1.35;;
22737;SDS011;11536;50.860;4.286;2022-09-09T14:56:07;4.25;;;0.90;;
22737;SDS011;11536;50.860;4.286;2022-09-09T14:58:38;7.47;;;1.10;;
22737;SDS011;11536;50.860;4.286;2022-09-09T15:01:04;4.47;;;0.98;;
22737;SDS011;11536;50.860;4.286;2022-09-09T15:03:31;5.40;;;1.13;;
22737;SDS011;11536;50.860;4.286;2022-09-09T15:05:58;7.68;;;0.88;;
22737;SDS011;11536;50.860;4.286;2022-09-09T15:08:24;5.18;;;1.40;;
22737;SDS011;11536;50.860;4.286;2022-09-09T15:10:50;5.93;;;1.20;;
22737;SDS011;11536;50.860;4.286;2022-09-09T15:13:23;4.78;;;1.35;;
22737;SDS011;11536;50.860;4.286;2022-09-09T15:15:49;3.90;;;1.23;;
22737;SDS011;11536;50.860;4.286;2022-09-09T15:18:15;5.90;;;1.10;;
22737;SDS011;11536;50.860;4.286;2022-09-09T15:20:44;5.97;;;1.15;;
22737;SDS011;11536;50.860;4.286;2022-09-09T15:23:11;6.40;;;1.08;;
22737;SDS011;11536;50.860;4.286;2022-09-09T15:25:37;6.70;;;1.27;;
22737;SDS011;11536;50.860;4.286;2022-09-09T15:28:02;4.30;;;1.00;;
22737;SDS011;11536;50.860;4.286;2022-09-09T15:30:28;6.22;;;1.05;;
22737;SDS011;11536;50.860;4.286;2022-09-09T15:32:54;6.65;;;1.08;;
22737;SDS011;11536;50.860;4.286;2022-09-09T15:35:20;4.72;;;1.10;;
22737;SDS011;11536;50.860;4.286;2022-09-09T15:37:46;5.10;;;1.13;;
22737;SDS011;11536;50.860;4.286;2022-09-09T15:40:12;7.95;;;1.40;;
22737;SDS011;11536;50.860;4.286;2022-09-09T15:42:37;4.35;;;1.20;;
22737;SDS011;11536;50.860;4.286;2022-09-09T15:45:03;8.88;;;1.50;;
22737;SDS011;11536;50.860;4.286;2022-09-09T15:47:30;5.65;;;1.27;;
22737;SDS011;11536;50.860;4.286;2022-09-09T15:49:57;5.35;;;1.20;;
22737;SDS011;11536;50.860;4.286;2022-09-09T15:52:22;6.47;;;1.08;;
22737;SDS011;11536;50.860;4.286;2022-09-09T15:54:48;5.47;;;1.25;;
22737;SDS011;11536;50.860;4.286;2022-09-09T15:57:14;4.72;;;1.10;;
22737;SDS011;11536;50.860;4.286;2022-09-09T15:59:39;6.78;;;1.40;;
22737;SDS011;11536;50.860;4.286;2022-09-09T16:02:05;6.57;;;1.15;;
22737;SDS011;11536;50.860;4.286;2022-09-09T16:04:31;4.07;;;1.10;;
22737;SDS011;11536;50.860;4.286;2022-09-09T16:06:59;4.28;;;1.20;;
22737;SDS011;11536;50.860;4.286;2022-09-09T16:09:30;5.45;;;1.25;;
22737;SDS011;11536;50.860;4.286;2022-09-09T16:11:57;5.15;;;1.40;;
22737;SDS011;11536;50.860;4.286;2022-09-09T16:14:25;5.97;;;1.42;;
22737;SDS011;11536;50.860;4.286;2022-09-09T16:16:52;5.00;;;1.15;;
22737;SDS011;11536;50.860;4.286;2022-09-09T16:19:18;4.00;;;1.10;;
22737;SDS011;11536;50.860;4.286;2022-09-09T16:21:45;5.05;;;0.90;;
22737;SDS011;11536;50.860;4.286;2022-09-09T16:24:13;5.07;;;0.90;;
22737;SDS011;11536;50.860;4.286;2022-09-09T16:26:41;4.65;;;1.00;;
22737;SDS011;11536;50.860;4.286;2022-09-09T16:29:11;3.42;;;0.98;;
22737;SDS011;11536;50.860;4.286;2022-09-09T16:31:39;5.32;;;1.02;;
22737;SDS011;11536;50.860;4.286;2022-09-09T16:34:05;5.10;;;0.95;;
22737;SDS011;11536;50.860;4.286;2022-09-09T16:36:32;5.63;;;0.90;;
22737;SDS011;11536;50.860;4.286;2022-09-09T16:39:03;6.07;;;1.17;;
22737;SDS011;11536;50.860;4.286;2022-09-09T16:41:31;4.28;;;1.02;;
22737;SDS011;11536;50.860;4.286;2022-09-09T16:43:58;4.78;;;1.30;;
22737;SDS011;11536;50.860;4.286;2022-09-09T16:46:27;3.72;;;1.10;;
22737;SDS011;11536;50.860;4.286;2022-09-09T16:48:57;5.13;;;1.00;;
22737;SDS011;11536;50.860;4.286;2022-09-09T16:51:28;5.72;;;1.00;;
22737;SDS011;11536;50.860;4.286;2022-09-09T16:53:59;3.63;;;1.10;;
22737;SDS011;11536;50.860;4.286;2022-09-09T16:56:27;5.88;;;1.27;;
22737;SDS011;11536;50.860;4.286;2022-09-09T16:58:58;4.18;;;1.15;;
22737;SDS011;11536;50.860;4.286;2022-09-09T17:01:25;3.78;;;1.10;;
22737;SDS011;11536;50.860;4.286;2022-09-09T17:03:56;6.10;;;1.10;;
22737;SDS011;11536;50.860;4.286;2022-09-09T17:06:26;5.03;;;1.20;;